sensor_id;sensor_type;location;lat;lon;timestamp;P1;durP1;ratioP1;P2;durP2;ratioP2
44564;SDS011;30275;51.822;-0.326;2023-03-31T00:02:03;9.80;;;3.30;;
44564;SDS011;30275;51.822;-0.326;2023-03-31T00:04:37;12.27;;;3.80;;
44564;SDS011;30275;51.822;-0.326;2023-03-31T00:07:10;8.02;;;3.35;;
44564;SDS011;30275;51.822;-0.326;2023-03-31T00:09:37;9.98;;;3.05;;
44564;SDS011;30275;51.822;-0.326;2023-03-31T00:12:04;7.53;;;2.65;;
44564;SDS011;30275;51.822;-0.326;2023-03-31T00:14:30;11.45;;;3.55;;
44564;SDS011;30275;51.822;-0.326;2023-03-31T00:16:56;12.20;;;3.28;;
44564;SDS011;30275;51.822;-0.326;2023-03-31T00:19:22;17.10;;;3.97;;
44564;SDS011;30275;51.822;-0.326;2023-03-31T00:21:48;15.93;;;3.30;;
44564;SDS011;30275;51.822;-0.326;2023-03-31T00:24:15;22.20;;;5.07;;
44564;SDS011;30275;51.822;-0.326;2023-03-31T00:26:43;18.33;;;5.00;;
44564;SDS011;30275;51.822;-0.326;2023-03-31T00:29:09;25.98;;;4.65;;
44564;SDS011;30275;51.822;-0.326;2023-03-31T00:31:36;13.05;;;3.80;;
44564;SDS011;30275;51.822;-0.326;2023-03-31T00:34:03;14.68;;;3.70;;
44564;SDS011;30275;51.822;-0.326;2023-03-31T00:36:29;21.20;;;4.60;;
44564;SDS011;30275;51.822;-0.326;2023-03-31T00:39:00;14.30;;;3.53;;
44564;SDS011;30275;51.822;-0.326;2023-03-31T00:41:30;17.10;;;3.20;;
44564;SDS011;30275;51.822;-0.326;2023-03-31T00:44:06;11.88;;;3.40;;
44564;SDS011;30275;51.822;-0.326;2023-03-31T00:46:45;18.90;;;4.40;;
44564;SDS011;30275;51.822;-0.326;2023-03-31T00:49:32;20.35;;;4.85;;
44564;SDS011;30275;51.822;-0.326;2023-03-31T00:52:09;16.58;;;3.88;;
44564;SDS011;30275;51.822;-0.326;2023-03-31T00:54:42;14.48;;;3.58;;
44564;SDS011;30275;51.822;-0.326;2023-03-31T00:57:10;18.55;;;3.33;;
44564;SDS011;30275;51.822;-0.326;2023-03-31T00:59:41;15.15;;;3.45;;
44564;SDS011;30275;51.822;-0.326;2023-03-31T01:02:10;16.90;;;3.53;;
44564;SDS011;30275;51.822;-0.326;2023-03-31T01:04:40;15.38;;;2.75;;
44564;SDS011;30275;51.822;-0.326;2023-03-31T01:07:13;20.20;;;4.60;;
44564;SDS011;30275;51.822;-0.326;2023-03-31T01:09:44;16.23;;;3.55;;
44564;SDS011;30275;51.822;-0.326;2023-03-31T01:12:11;15.30;;;3.33;;
44564;SDS011;30275;51.822;-0.326;2023-03-31T01:14:39;15.48;;;3.60;;
44564;SDS011;30275;51.822;-0.326;2023-03-31T01:17:05;17.88;;;3.33;;
44564;SDS011;30275;51.822;-0.326;2023-03-31T01:25:32;15.90;;;3.13;;
44564;SDS011;30275;51.822;-0.326;2023-03-31T01:42:51;7.18;;;2.95;;
44564;SDS011;30275;51.822;-0.326;2023-03-31T01:45:34;8.18;;;3.13;;
44564;SDS011;30275;51.822;-0.326;2023-03-31T01:48:12;14.02;;;2.50;;
44564;SDS011;30275;51.822;-0.326;2023-03-31T01:51:06;13.40;;;4.55;;
44564;SDS011;30275;51.822;-0.326;2023-03-31T01:53:49;9.40;;;2.20;;
44564;SDS011;30275;51.822;-0.326;2023-03-31T01:56:24;13.75;;;2.90;;
44564;SDS011;30275;51.822;-0.326;2023-03-31T01:59:14;10.18;;;2.80;;
44564;SDS011;30275;51.822;-0.326;2023-03-31T02:01:52;10.45;;;2.40;;
44564;SDS011;30275;51.822;-0.326;2023-03-31T02:04:32;10.43;;;2.35;;
44564;SDS011;30275;51.822;-0.326;2023-03-31T02:07:17;14.38;;;2.60;;
44564;SDS011;30275;51.822;-0.326;2023-03-31T02:09:49;7.80;;;2.63;;
44564;SDS011;30275;51.822;-0.326;2023-03-31T02:12:23;14.27;;;2.47;;
44564;SDS011;30275;51.822;-0.326;2023-03-31T02:14:51;9.68;;;2.75;;
44564;SDS011;30275;51.822;-0.326;2023-03-31T02:17:19;12.65;;;2.67;;
44564;SDS011;30275;51.822;-0.326;2023-03-31T02:19:54;11.18;;;2.55;;
44564;SDS011;30275;51.822;-0.326;2023-03-31T02:22:23;9.38;;;2.20;;
44564;SDS011;30275;51.822;-0.326;2023-03-31T02:24:51;10.35;;;2.42;;
44564;SDS011;30275;51.822;-0.326;2023-03-31T02:27:19;5.93;;;2.00;;
44564;SDS011;30275;51.822;-0.326;2023-03-31T02:29:49;11.95;;;2.60;;
44564;SDS011;30275;51.822;-0.326;2023-03-31T02:32:31;5.95;;;2.38;;
44564;SDS011;30275;51.822;-0.326;2023-03-31T02:35:01;7.10;;;1.98;;
44564;SDS011;30275;51.822;-0.326;2023-03-31T02:37:28;9.27;;;2.55;;
44564;SDS011;30275;51.822;-0.326;2023-03-31T02:39:55;7.60;;;2.72;;
44564;SDS011;30275;51.822;-0.326;2023-03-31T02:42:24;7.80;;;2.35;;
44564;SDS011;30275;51.822;-0.326;2023-03-31T02:44:50;12.43;;;2.85;;
44564;SDS011;30275;51.822;-0.326;2023-03-31T02:47:16;7.60;;;2.30;;
44564;SDS011;30275;51.822;-0.326;2023-03-31T02:49:45;15.40;;;3.55;;
44564;SDS011;30275;51.822;-0.326;2023-03-31T02:55:33;8.98;;;2.63;;
44564;SDS011;30275;51.822;-0.326;2023-03-31T02:58:37;13.35;;;2.95;;
44564;SDS011;30275;51.822;-0.326;2023-03-31T03:19:49;14.40;;;2.80;;
44564;SDS011;30275;51.822;-0.326;2023-03-31T03:22:17;19.50;;;3.97;;
44564;SDS011;30275;51.822;-0.326;2023-03-31T03:24:42;11.50;;;2.53;;
44564;SDS011;30275;51.822;-0.326;2023-03-31T03:27:08;10.82;;;2.95;;
44564;SDS011;30275;51.822;-0.326;2023-03-31T03:29:34;12.60;;;2.97;;
44564;SDS011;30275;51.822;-0.326;2023-03-31T03:31:59;18.42;;;4.32;;
44564;SDS011;30275;51.822;-0.326;2023-03-31T03:34:25;18.85;;;3.33;;
44564;SDS011;30275;51.822;-0.326;2023-03-31T03:36:50;14.15;;;3.75;;
44564;SDS011;30275;51.822;-0.326;2023-03-31T03:39:16;17.35;;;3.72;;
44564;SDS011;30275;51.822;-0.326;2023-03-31T03:41:42;17.65;;;4.85;;
44564;SDS011;30275;51.822;-0.326;2023-03-31T03:44:07;13.10;;;3.45;;
44564;SDS011;30275;51.822;-0.326;2023-03-31T03:46:33;12.73;;;3.38;;
44564;SDS011;30275;51.822;-0.326;2023-03-31T03:48:58;11.90;;;2.58;;
44564;SDS011;30275;51.822;-0.326;2023-03-31T03:51:24;13.25;;;2.42;;
44564;SDS011;30275;51.822;-0.326;2023-03-31T03:53:50;22.02;;;4.32;;
44564;SDS011;30275;51.822;-0.326;2023-03-31T03:56:15;14.30;;;2.97;;
44564;SDS011;30275;51.822;-0.326;2023-03-31T03:58:41;19.80;;;5.13;;
44564;SDS011;30275;51.822;-0.326;2023-03-31T04:01:06;16.08;;;3.17;;
44564;SDS011;30275;51.822;-0.326;2023-03-31T04:03:32;17.60;;;3.35;;
44564;SDS011;30275;51.822;-0.326;2023-03-31T04:05:57;20.23;;;4.15;;
44564;SDS011;30275;51.822;-0.326;2023-03-31T04:08:23;20.38;;;3.53;;
44564;SDS011;30275;51.822;-0.326;2023-03-31T04:10:49;17.17;;;3.92;;
44564;SDS011;30275;51.822;-0.326;2023-03-31T04:13:15;10.93;;;2.65;;
44564;SDS011;30275;51.822;-0.326;2023-03-31T04:15:41;15.55;;;3.65;;
44564;SDS011;30275;51.822;-0.326;2023-03-31T04:18:08;19.58;;;4.55;;
44564;SDS011;30275;51.822;-0.326;2023-03-31T04:20:47;25.27;;;5.15;;
44564;SDS011;30275;51.822;-0.326;2023-03-31T04:23:19;13.10;;;3.15;;
44564;SDS011;30275;51.822;-0.326;2023-03-31T04:25:47;18.58;;;3.80;;
44564;SDS011;30275;51.822;-0.326;2023-03-31T04:28:14;22.33;;;4.60;;
44564;SDS011;30275;51.822;-0.326;2023-03-31T04:30:39;28.48;;;3.90;;
44564;SDS011;30275;51.822;-0.326;2023-03-31T04:33:05;23.55;;;4.30;;
44564;SDS011;30275;51.822;-0.326;2023-03-31T04:35:31;22.30;;;5.20;;
44564;SDS011;30275;51.822;-0.326;2023-03-31T04:38:13;19.65;;;4.22;;
44564;SDS011;30275;51.822;-0.326;2023-03-31T04:40:44;22.05;;;3.42;;
44564;SDS011;30275;51.822;-0.326;2023-03-31T04:43:13;24.52;;;5.25;;
44564;SDS011;30275;51.822;-0.326;2023-03-31T04:45:40;15.63;;;4.10;;
44564;SDS011;30275;51.822;-0.326;2023-03-31T04:48:06;25.15;;;3.67;;
44564;SDS011;30275;51.822;-0.326;2023-03-31T04:50:31;21.33;;;4.60;;
44564;SDS011;30275;51.822;-0.326;2023-03-31T04:52:57;21.45;;;3.97;;
44564;SDS011;30275;51.822;-0.326;2023-03-31T04:55:23;20.63;;;4.68;;
44564;SDS011;30275;51.822;-0.326;2023-03-31T04:57:49;18.67;;;4.70;;
44564;SDS011;30275;51.822;-0.326;2023-03-31T05:00:15;24.85;;;4.97;;
44564;SDS011;30275;51.822;-0.326;2023-03-31T05:02:42;16.58;;;3.63;;
44564;SDS011;30275;51.822;-0.326;2023-03-31T05:05:08;18.80;;;4.47;;
44564;SDS011;30275;51.822;-0.326;2023-03-31T05:07:34;23.92;;;6.03;;
44564;SDS011;30275;51.822;-0.326;2023-03-31T05:10:00;23.05;;;4.75;;
44564;SDS011;30275;51.822;-0.326;2023-03-31T05:12:26;22.02;;;4.35;;
44564;SDS011;30275;51.822;-0.326;2023-03-31T05:14:51;23.08;;;5.25;;
44564;SDS011;30275;51.822;-0.326;2023-03-31T05:17:17;19.52;;;3.92;;
44564;SDS011;30275;51.822;-0.326;2023-03-31T05:19:43;22.42;;;4.82;;
44564;SDS011;30275;51.822;-0.326;2023-03-31T05:22:08;23.23;;;5.15;;
44564;SDS011;30275;51.822;-0.326;2023-03-31T05:24:34;11.93;;;3.28;;
44564;SDS011;30275;51.822;-0.326;2023-03-31T05:27:00;23.73;;;4.03;;
44564;SDS011;30275;51.822;-0.326;2023-03-31T05:29:26;15.55;;;3.28;;
44564;SDS011;30275;51.822;-0.326;2023-03-31T05:31:51;28.13;;;6.57;;
44564;SDS011;30275;51.822;-0.326;2023-03-31T05:34:17;16.63;;;3.33;;
44564;SDS011;30275;51.822;-0.326;2023-03-31T05:36:43;16.70;;;4.03;;
44564;SDS011;30275;51.822;-0.326;2023-03-31T05:39:09;19.52;;;4.63;;
44564;SDS011;30275;51.822;-0.326;2023-03-31T05:41:34;22.20;;;3.30;;
44564;SDS011;30275;51.822;-0.326;2023-03-31T05:44:00;27.35;;;5.38;;
44564;SDS011;30275;51.822;-0.326;2023-03-31T05:46:28;21.83;;;5.38;;
44564;SDS011;30275;51.822;-0.326;2023-03-31T05:48:54;19.17;;;3.78;;
44564;SDS011;30275;51.822;-0.326;2023-03-31T05:51:20;26.73;;;5.53;;
44564;SDS011;30275;51.822;-0.326;2023-03-31T05:53:46;16.50;;;3.42;;
44564;SDS011;30275;51.822;-0.326;2023-03-31T05:56:12;22.80;;;4.97;;
44564;SDS011;30275;51.822;-0.326;2023-03-31T05:58:37;23.83;;;4.20;;
44564;SDS011;30275;51.822;-0.326;2023-03-31T06:01:05;20.45;;;3.78;;
44564;SDS011;30275;51.822;-0.326;2023-03-31T06:03:32;14.38;;;4.55;;
44564;SDS011;30275;51.822;-0.326;2023-03-31T06:05:59;20.77;;;4.35;;
44564;SDS011;30275;51.822;-0.326;2023-03-31T06:08:26;17.15;;;3.85;;
44564;SDS011;30275;51.822;-0.326;2023-03-31T06:10:52;18.20;;;3.67;;
44564;SDS011;30275;51.822;-0.326;2023-03-31T06:13:18;21.02;;;4.43;;
44564;SDS011;30275;51.822;-0.326;2023-03-31T06:15:54;28.05;;;6.05;;
44564;SDS011;30275;51.822;-0.326;2023-03-31T06:18:21;26.27;;;5.05;;
44564;SDS011;30275;51.822;-0.326;2023-03-31T06:20:47;12.00;;;2.72;;
44564;SDS011;30275;51.822;-0.326;2023-03-31T06:23:13;15.13;;;4.03;;
44564;SDS011;30275;51.822;-0.326;2023-03-31T06:25:39;13.23;;;3.47;;
44564;SDS011;30275;51.822;-0.326;2023-03-31T06:28:05;6.50;;;2.65;;
44564;SDS011;30275;51.822;-0.326;2023-03-31T06:30:31;11.82;;;3.08;;
44564;SDS011;30275;51.822;-0.326;2023-03-31T06:32:57;10.25;;;2.67;;
44564;SDS011;30275;51.822;-0.326;2023-03-31T06:35:23;10.55;;;2.75;;
44564;SDS011;30275;51.822;-0.326;2023-03-31T06:37:49;11.40;;;2.80;;
44564;SDS011;30275;51.822;-0.326;2023-03-31T06:40:15;13.52;;;2.85;;
44564;SDS011;30275;51.822;-0.326;2023-03-31T06:42:41;8.07;;;2.28;;
44564;SDS011;30275;51.822;-0.326;2023-03-31T06:45:06;16.35;;;3.00;;
44564;SDS011;30275;51.822;-0.326;2023-03-31T06:47:32;18.30;;;4.72;;
44564;SDS011;30275;51.822;-0.326;2023-03-31T06:49:58;14.55;;;3.15;;
44564;SDS011;30275;51.822;-0.326;2023-03-31T06:52:23;11.15;;;2.85;;
44564;SDS011;30275;51.822;-0.326;2023-03-31T06:54:49;10.48;;;3.33;;
44564;SDS011;30275;51.822;-0.326;2023-03-31T06:57:15;12.25;;;2.55;;
44564;SDS011;30275;51.822;-0.326;2023-03-31T06:59:40;15.32;;;2.47;;
44564;SDS011;30275;51.822;-0.326;2023-03-31T07:02:06;11.02;;;3.38;;
44564;SDS011;30275;51.822;-0.326;2023-03-31T07:04:33;17.73;;;3.08;;
44564;SDS011;30275;51.822;-0.326;2023-03-31T07:06:58;12.38;;;2.63;;
44564;SDS011;30275;51.822;-0.326;2023-03-31T07:09:24;12.18;;;2.85;;
44564;SDS011;30275;51.822;-0.326;2023-03-31T07:11:50;12.50;;;2.97;;
44564;SDS011;30275;51.822;-0.326;2023-03-31T07:14:15;13.75;;;2.88;;
44564;SDS011;30275;51.822;-0.326;2023-03-31T07:16:41;13.25;;;3.67;;
44564;SDS011;30275;51.822;-0.326;2023-03-31T07:19:06;16.30;;;3.63;;
44564;SDS011;30275;51.822;-0.326;2023-03-31T07:21:34;13.15;;;3.70;;
44564;SDS011;30275;51.822;-0.326;2023-03-31T07:24:00;13.77;;;2.88;;
44564;SDS011;30275;51.822;-0.326;2023-03-31T07:26:26;13.93;;;2.95;;
44564;SDS011;30275;51.822;-0.326;2023-03-31T07:28:52;14.07;;;3.08;;
44564;SDS011;30275;51.822;-0.326;2023-03-31T07:31:20;12.27;;;3.67;;
44564;SDS011;30275;51.822;-0.326;2023-03-31T07:33:46;14.13;;;2.63;;
44564;SDS011;30275;51.822;-0.326;2023-03-31T07:36:12;14.13;;;3.05;;
44564;SDS011;30275;51.822;-0.326;2023-03-31T07:38:38;15.85;;;4.45;;
44564;SDS011;30275;51.822;-0.326;2023-03-31T07:41:10;19.15;;;4.18;;
44564;SDS011;30275;51.822;-0.326;2023-03-31T07:43:37;13.48;;;3.03;;
44564;SDS011;30275;51.822;-0.326;2023-03-31T07:46:03;20.10;;;4.35;;
44564;SDS011;30275;51.822;-0.326;2023-03-31T07:48:31;15.13;;;3.25;;
44564;SDS011;30275;51.822;-0.326;2023-03-31T07:50:57;18.60;;;3.20;;
44564;SDS011;30275;51.822;-0.326;2023-03-31T07:53:23;9.48;;;2.75;;
44564;SDS011;30275;51.822;-0.326;2023-03-31T07:55:49;13.43;;;3.22;;
44564;SDS011;30275;51.822;-0.326;2023-03-31T07:58:14;14.90;;;4.07;;
44564;SDS011;30275;51.822;-0.326;2023-03-31T08:00:40;14.93;;;3.08;;
44564;SDS011;30275;51.822;-0.326;2023-03-31T08:03:05;15.05;;;3.22;;
44564;SDS011;30275;51.822;-0.326;2023-03-31T08:05:31;13.38;;;3.97;;
44564;SDS011;30275;51.822;-0.326;2023-03-31T08:07:57;18.45;;;3.17;;
44564;SDS011;30275;51.822;-0.326;2023-03-31T08:10:23;19.75;;;3.10;;
44564;SDS011;30275;51.822;-0.326;2023-03-31T08:12:50;15.15;;;2.65;;
44564;SDS011;30275;51.822;-0.326;2023-03-31T08:15:16;23.77;;;3.38;;
44564;SDS011;30275;51.822;-0.326;2023-03-31T08:17:42;19.63;;;4.10;;
44564;SDS011;30275;51.822;-0.326;2023-03-31T08:20:08;19.35;;;4.85;;
44564;SDS011;30275;51.822;-0.326;2023-03-31T08:22:34;17.48;;;4.00;;
44564;SDS011;30275;51.822;-0.326;2023-03-31T08:25:03;16.58;;;4.45;;
44564;SDS011;30275;51.822;-0.326;2023-03-31T08:27:33;14.10;;;3.08;;
44564;SDS011;30275;51.822;-0.326;2023-03-31T08:30:00;17.92;;;4.63;;
44564;SDS011;30275;51.822;-0.326;2023-03-31T08:32:29;18.52;;;4.43;;
44564;SDS011;30275;51.822;-0.326;2023-03-31T08:34:56;17.50;;;3.10;;
44564;SDS011;30275;51.822;-0.326;2023-03-31T08:37:21;15.25;;;3.25;;
44564;SDS011;30275;51.822;-0.326;2023-03-31T08:39:48;13.60;;;3.10;;
44564;SDS011;30275;51.822;-0.326;2023-03-31T08:48:03;16.13;;;3.80;;
44564;SDS011;30275;51.822;-0.326;2023-03-31T08:51:00;11.70;;;3.05;;
44564;SDS011;30275;51.822;-0.326;2023-03-31T08:53:36;18.80;;;3.20;;
44564;SDS011;30275;51.822;-0.326;2023-03-31T08:56:06;17.75;;;4.10;;
44564;SDS011;30275;51.822;-0.326;2023-03-31T08:58:44;15.40;;;3.47;;
44564;SDS011;30275;51.822;-0.326;2023-03-31T09:09:20;22.83;;;3.70;;
44564;SDS011;30275;51.822;-0.326;2023-03-31T09:12:09;19.65;;;3.65;;
44564;SDS011;30275;51.822;-0.326;2023-03-31T09:14:53;15.05;;;2.97;;
44564;SDS011;30275;51.822;-0.326;2023-03-31T09:17:46;17.33;;;5.20;;
44564;SDS011;30275;51.822;-0.326;2023-03-31T09:20:23;12.23;;;5.15;;
44564;SDS011;30275;51.822;-0.326;2023-03-31T09:22:54;13.35;;;3.20;;
44564;SDS011;30275;51.822;-0.326;2023-03-31T09:25:34;16.58;;;3.13;;
44564;SDS011;30275;51.822;-0.326;2023-03-31T09:28:03;12.23;;;2.75;;
44564;SDS011;30275;51.822;-0.326;2023-03-31T09:30:37;9.10;;;2.20;;
44564;SDS011;30275;51.822;-0.326;2023-03-31T09:35:39;11.80;;;3.13;;
44564;SDS011;30275;51.822;-0.326;2023-03-31T09:38:05;11.77;;;2.58;;
44564;SDS011;30275;51.822;-0.326;2023-03-31T09:40:33;13.38;;;2.22;;
44564;SDS011;30275;51.822;-0.326;2023-03-31T09:43:00;14.10;;;3.05;;
44564;SDS011;30275;51.822;-0.326;2023-03-31T09:45:38;9.52;;;2.28;;
44564;SDS011;30275;51.822;-0.326;2023-03-31T09:48:10;13.20;;;3.25;;
44564;SDS011;30275;51.822;-0.326;2023-03-31T09:50:41;12.07;;;2.83;;
44564;SDS011;30275;51.822;-0.326;2023-03-31T09:53:13;7.65;;;2.50;;
44564;SDS011;30275;51.822;-0.326;2023-03-31T09:55:52;8.85;;;2.95;;
44564;SDS011;30275;51.822;-0.326;2023-03-31T09:58:20;11.50;;;2.70;;
44564;SDS011;30275;51.822;-0.326;2023-03-31T10:00:58;10.90;;;2.70;;
44564;SDS011;30275;51.822;-0.326;2023-03-31T10:03:30;6.43;;;1.70;;
44564;SDS011;30275;51.822;-0.326;2023-03-31T10:06:00;8.30;;;2.45;;
44564;SDS011;30275;51.822;-0.326;2023-03-31T10:08:37;5.63;;;1.90;;
44564;SDS011;30275;51.822;-0.326;2023-03-31T10:11:07;10.18;;;2.45;;
44564;SDS011;30275;51.822;-0.326;2023-03-31T10:13:46;3.95;;;1.45;;
44564;SDS011;30275;51.822;-0.326;2023-03-31T10:16:26;3.65;;;1.70;;
44564;SDS011;30275;51.822;-0.326;2023-03-31T10:18:55;2.60;;;1.00;;
44564;SDS011;30275;51.822;-0.326;2023-03-31T10:21:44;4.95;;;1.05;;
44564;SDS011;30275;51.822;-0.326;2023-03-31T10:24:16;4.68;;;1.45;;
44564;SDS011;30275;51.822;-0.326;2023-03-31T10:26:45;5.67;;;1.10;;
44564;SDS011;30275;51.822;-0.326;2023-03-31T10:29:14;5.25;;;1.30;;
44564;SDS011;30275;51.822;-0.326;2023-03-31T10:34:11;3.10;;;0.95;;
44564;SDS011;30275;51.822;-0.326;2023-03-31T10:36:50;3.03;;;1.08;;
44564;SDS011;30275;51.822;-0.326;2023-03-31T10:39:16;2.88;;;0.90;;
44564;SDS011;30275;51.822;-0.326;2023-03-31T10:41:43;1.77;;;0.68;;
44564;SDS011;30275;51.822;-0.326;2023-03-31T10:47:03;1.52;;;0.70;;
44564;SDS011;30275;51.822;-0.326;2023-03-31T10:49:29;3.13;;;1.25;;
44564;SDS011;30275;51.822;-0.326;2023-03-31T10:52:02;1.20;;;1.10;;
44564;SDS011;30275;51.822;-0.326;2023-03-31T10:54:37;0.93;;;0.90;;
44564;SDS011;30275;51.822;-0.326;2023-03-31T10:57:10;1.42;;;1.00;;
44564;SDS011;30275;51.822;-0.326;2023-03-31T11:02:40;1.02;;;0.95;;
44564;SDS011;30275;51.822;-0.326;2023-03-31T11:08:06;2.33;;;1.20;;
44564;SDS011;30275;51.822;-0.326;2023-03-31T11:10:52;1.10;;;0.90;;
44564;SDS011;30275;51.822;-0.326;2023-03-31T11:13:45;1.45;;;1.15;;
44564;SDS011;30275;51.822;-0.326;2023-03-31T11:22:24;0.80;;;0.65;;
44564;SDS011;30275;51.822;-0.326;2023-03-31T11:25:47;1.08;;;0.93;;
44564;SDS011;30275;51.822;-0.326;2023-03-31T11:39:59;1.30;;;0.47;;
44564;SDS011;30275;51.822;-0.326;2023-03-31T11:45:18;0.35;;;0.32;;
44564;SDS011;30275;51.822;-0.326;2023-03-31T11:47:49;0.40;;;0.40;;
44564;SDS011;30275;51.822;-0.326;2023-03-31T11:50:20;2.65;;;0.80;;
44564;SDS011;30275;51.822;-0.326;2023-03-31T11:52:52;1.92;;;0.63;;
44564;SDS011;30275;51.822;-0.326;2023-03-31T11:55:29;0.40;;;0.40;;
44564;SDS011;30275;51.822;-0.326;2023-03-31T12:03:15;0.65;;;0.40;;
44564;SDS011;30275;51.822;-0.326;2023-03-31T12:05:57;0.70;;;0.70;;
44564;SDS011;30275;51.822;-0.326;2023-03-31T12:08:29;0.35;;;0.35;;
44564;SDS011;30275;51.822;-0.326;2023-03-31T12:11:15;1.02;;;0.50;;
44564;SDS011;30275;51.822;-0.326;2023-03-31T12:16:45;1.88;;;0.60;;
44564;SDS011;30275;51.822;-0.326;2023-03-31T12:22:09;2.00;;;0.93;;
44564;SDS011;30275;51.822;-0.326;2023-03-31T12:24:39;1.42;;;1.05;;
44564;SDS011;30275;51.822;-0.326;2023-03-31T12:29:59;3.00;;;1.50;;
44564;SDS011;30275;51.822;-0.326;2023-03-31T12:32:33;2.35;;;1.40;;
44564;SDS011;30275;51.822;-0.326;2023-03-31T12:40:55;1.65;;;1.20;;
44564;SDS011;30275;51.822;-0.326;2023-03-31T12:52:15;1.35;;;1.23;;
44564;SDS011;30275;51.822;-0.326;2023-03-31T12:57:43;1.85;;;0.90;;
44564;SDS011;30275;51.822;-0.326;2023-03-31T13:02:42;0.82;;;0.77;;
44564;SDS011;30275;51.822;-0.326;2023-03-31T13:08:07;3.63;;;1.10;;
44564;SDS011;30275;51.822;-0.326;2023-03-31T13:11:07;1.38;;;1.10;;
44564;SDS011;30275;51.822;-0.326;2023-03-31T13:13:26;2.83;;;1.30;;
44564;SDS011;30275;51.822;-0.326;2023-03-31T13:15:53;1.92;;;1.10;;
44564;SDS011;30275;51.822;-0.326;2023-03-31T13:18:22;1.10;;;1.00;;
44564;SDS011;30275;51.822;-0.326;2023-03-31T13:20:58;2.55;;;1.20;;
44564;SDS011;30275;51.822;-0.326;2023-03-31T13:23:25;4.65;;;2.28;;
44564;SDS011;30275;51.822;-0.326;2023-03-31T13:25:55;1.83;;;1.00;;
44564;SDS011;30275;51.822;-0.326;2023-03-31T13:30:52;1.90;;;1.33;;
44564;SDS011;30275;51.822;-0.326;2023-03-31T13:50:16;2.67;;;1.27;;
44564;SDS011;30275;51.822;-0.326;2023-03-31T13:52:57;1.70;;;0.93;;
44564;SDS011;30275;51.822;-0.326;2023-03-31T14:04:03;1.75;;;1.02;;
44564;SDS011;30275;51.822;-0.326;2023-03-31T14:06:54;1.95;;;0.90;;
44564;SDS011;30275;51.822;-0.326;2023-03-31T14:09:29;2.95;;;1.33;;
44564;SDS011;30275;51.822;-0.326;2023-03-31T14:11:58;1.23;;;0.98;;
44564;SDS011;30275;51.822;-0.326;2023-03-31T14:14:24;2.75;;;1.27;;
44564;SDS011;30275;51.822;-0.326;2023-03-31T14:16:58;2.50;;;1.30;;
44564;SDS011;30275;51.822;-0.326;2023-03-31T14:22:09;1.40;;;1.30;;
44564;SDS011;30275;51.822;-0.326;2023-03-31T14:24:42;1.75;;;1.10;;
44564;SDS011;30275;51.822;-0.326;2023-03-31T14:27:33;1.98;;;1.00;;
44564;SDS011;30275;51.822;-0.326;2023-03-31T14:38:49;1.58;;;1.05;;
44564;SDS011;30275;51.822;-0.326;2023-03-31T14:41:17;1.50;;;1.10;;
44564;SDS011;30275;51.822;-0.326;2023-03-31T14:43:46;2.38;;;1.30;;
44564;SDS011;30275;51.822;-0.326;2023-03-31T14:46:17;2.20;;;1.30;;
44564;SDS011;30275;51.822;-0.326;2023-03-31T14:48:46;1.35;;;1.25;;
44564;SDS011;30275;51.822;-0.326;2023-03-31T14:51:14;2.88;;;1.30;;
44564;SDS011;30275;51.822;-0.326;2023-03-31T14:53:41;1.70;;;1.40;;
44564;SDS011;30275;51.822;-0.326;2023-03-31T14:56:11;2.13;;;1.25;;
44564;SDS011;30275;51.822;-0.326;2023-03-31T14:58:44;1.90;;;1.30;;
44564;SDS011;30275;51.822;-0.326;2023-03-31T15:01:14;2.03;;;1.20;;
44564;SDS011;30275;51.822;-0.326;2023-03-31T15:03:42;2.53;;;1.50;;
44564;SDS011;30275;51.822;-0.326;2023-03-31T15:06:09;1.88;;;1.60;;
44564;SDS011;30275;51.822;-0.326;2023-03-31T15:08:35;2.92;;;1.60;;
44564;SDS011;30275;51.822;-0.326;2023-03-31T15:11:03;2.25;;;1.40;;
44564;SDS011;30275;51.822;-0.326;2023-03-31T15:13:36;3.00;;;1.40;;
44564;SDS011;30275;51.822;-0.326;2023-03-31T15:19:21;1.67;;;1.40;;
44564;SDS011;30275;51.822;-0.326;2023-03-31T15:21:59;1.40;;;1.30;;
44564;SDS011;30275;51.822;-0.326;2023-03-31T15:24:32;1.98;;;1.40;;
44564;SDS011;30275;51.822;-0.326;2023-03-31T15:27:00;2.17;;;1.60;;
44564;SDS011;30275;51.822;-0.326;2023-03-31T15:32:12;2.15;;;1.38;;
44564;SDS011;30275;51.822;-0.326;2023-03-31T15:34:47;1.98;;;1.42;;
44564;SDS011;30275;51.822;-0.326;2023-03-31T15:37:14;1.63;;;1.52;;
44564;SDS011;30275;51.822;-0.326;2023-03-31T15:39:43;5.10;;;1.90;;
44564;SDS011;30275;51.822;-0.326;2023-03-31T15:42:10;2.72;;;1.90;;
44564;SDS011;30275;51.822;-0.326;2023-03-31T15:45:37;3.72;;;2.10;;
44564;SDS011;30275;51.822;-0.326;2023-03-31T15:47:47;4.55;;;2.22;;
44564;SDS011;30275;51.822;-0.326;2023-03-31T15:50:14;3.10;;;2.28;;
44564;SDS011;30275;51.822;-0.326;2023-03-31T15:52:50;2.88;;;2.33;;
44564;SDS011;30275;51.822;-0.326;2023-03-31T15:58:15;3.92;;;2.40;;
44564;SDS011;30275;51.822;-0.326;2023-03-31T16:00:43;4.63;;;2.40;;
44564;SDS011;30275;51.822;-0.326;2023-03-31T16:03:23;4.18;;;2.20;;
44564;SDS011;30275;51.822;-0.326;2023-03-31T16:05:56;2.78;;;1.90;;
44564;SDS011;30275;51.822;-0.326;2023-03-31T16:08:29;3.13;;;1.55;;
44564;SDS011;30275;51.822;-0.326;2023-03-31T16:11:15;1.50;;;1.30;;
44564;SDS011;30275;51.822;-0.326;2023-03-31T16:13:45;2.38;;;1.10;;
44564;SDS011;30275;51.822;-0.326;2023-03-31T16:16:19;1.73;;;1.33;;
44564;SDS011;30275;51.822;-0.326;2023-03-31T16:18:48;1.92;;;1.45;;
44564;SDS011;30275;51.822;-0.326;2023-03-31T16:21:19;1.65;;;1.10;;
44564;SDS011;30275;51.822;-0.326;2023-03-31T16:23:49;1.98;;;1.40;;
44564;SDS011;30275;51.822;-0.326;2023-03-31T16:26:21;2.28;;;1.40;;
44564;SDS011;30275;51.822;-0.326;2023-03-31T16:28:48;1.75;;;1.23;;
44564;SDS011;30275;51.822;-0.326;2023-03-31T16:34:07;2.42;;;2.00;;
44564;SDS011;30275;51.822;-0.326;2023-03-31T16:36:35;2.65;;;1.42;;
44564;SDS011;30275;51.822;-0.326;2023-03-31T16:39:01;4.03;;;2.58;;
44564;SDS011;30275;51.822;-0.326;2023-03-31T16:41:32;2.90;;;1.42;;
44564;SDS011;30275;51.822;-0.326;2023-03-31T16:43:59;2.05;;;1.38;;
44564;SDS011;30275;51.822;-0.326;2023-03-31T16:46:25;3.17;;;1.52;;
44564;SDS011;30275;51.822;-0.326;2023-03-31T16:48:51;1.42;;;1.33;;
44564;SDS011;30275;51.822;-0.326;2023-03-31T16:51:17;2.42;;;1.52;;
44564;SDS011;30275;51.822;-0.326;2023-03-31T16:53:43;3.38;;;1.83;;
44564;SDS011;30275;51.822;-0.326;2023-03-31T16:56:11;2.88;;;2.15;;
44564;SDS011;30275;51.822;-0.326;2023-03-31T16:58:37;2.55;;;1.95;;
44564;SDS011;30275;51.822;-0.326;2023-03-31T17:01:04;4.68;;;2.22;;
44564;SDS011;30275;51.822;-0.326;2023-03-31T17:03:31;2.47;;;1.77;;
44564;SDS011;30275;51.822;-0.326;2023-03-31T17:06:02;3.08;;;2.22;;
44564;SDS011;30275;51.822;-0.326;2023-03-31T17:08:33;3.05;;;2.05;;
44564;SDS011;30275;51.822;-0.326;2023-03-31T17:11:03;2.63;;;2.00;;
44564;SDS011;30275;51.822;-0.326;2023-03-31T17:13:32;4.80;;;2.72;;
44564;SDS011;30275;51.822;-0.326;2023-03-31T17:15:57;3.00;;;2.05;;
44564;SDS011;30275;51.822;-0.326;2023-03-31T17:18:24;3.05;;;2.05;;
44564;SDS011;30275;51.822;-0.326;2023-03-31T17:20:50;2.53;;;1.70;;
44564;SDS011;30275;51.822;-0.326;2023-03-31T17:23:17;2.50;;;2.05;;
44564;SDS011;30275;51.822;-0.326;2023-03-31T17:25:47;2.85;;;1.55;;
44564;SDS011;30275;51.822;-0.326;2023-03-31T17:28:13;3.75;;;1.80;;
44564;SDS011;30275;51.822;-0.326;2023-03-31T17:30:39;1.90;;;1.70;;
44564;SDS011;30275;51.822;-0.326;2023-03-31T17:33:08;2.28;;;1.83;;
44564;SDS011;30275;51.822;-0.326;2023-03-31T17:35:35;1.67;;;1.55;;
44564;SDS011;30275;51.822;-0.326;2023-03-31T17:38:01;2.67;;;1.50;;
44564;SDS011;30275;51.822;-0.326;2023-03-31T17:40:28;2.95;;;1.70;;
44564;SDS011;30275;51.822;-0.326;2023-03-31T17:42:57;3.08;;;1.90;;
44564;SDS011;30275;51.822;-0.326;2023-03-31T17:45:23;3.13;;;1.85;;